sept
01

MX FIM – GP DE LIEROP : LES QUALIFICATIONS

MX1 – Qualifying Race – Classification
Pos Nr Rider Nat. Fed. Bike Time laps Diff. First Diff. Prev. Bestlaptime in lap Speed

1 222 Cairoli, Antonio ITA FMI KTM 24:12.893 11 0:00.000 0:00.000 1:57.309 2 53.704
2 12 Nagl, Maximilian GER DMSB KTM 24:26.526 11 0:13.633 0:13.633 1:59.576 4 52.686
3 9 de Dycker, Ken BEL FMB KTM 24:40.119 11 0:27.226 0:13.593 1:58.570 4 53.133
4 21 Paulin, Gautier FRA MCM Kawasaki 24:41.107 11 0:28.214 0:00.988 2:00.709 2 52.192
5 24 Simpson, Shaun GBR ACU Yamaha 24:44.204 11 0:31.311 0:03.097 2:00.719 4 52.187
6 4 Leok, Tanel EST EMF Suzuki 24:45.836 11 0:32.943 0:01.632 2:01.609 5 51.805
7 22 Strijbos, Kevin BEL FMB KTM 24:56.796 11 0:43.903 0:10.960 2:01.076 3 52.033
8 25 Desalle, Clement BEL FMB Suzuki 25:07.346 11 0:54.453 0:10.550 2:00.558 2 52.257
9 377 Pourcel, Christophe FRA FFM Kawasaki 25:17.689 11 1:04.796 0:10.343 2:02.416 2 51.464
10 287 Schiffer, Marcus GER DMSB Suzuki 25:18.593 11 1:05.700 0:00.904 2:04.719 2 50.514
11 7 Barragan, Jonathan ESP RFME Honda 25:20.371 11 1:07.478 0:01.778 2:03.908 2 50.844
12 121 Boog, Xavier FRA FFM Kawasaki 25:31.167 11 1:18.274 0:10.796 2:05.152 5 50.339
13 212 de Reuver, Marc NED KNMV Kawasaki 25:40.030 11 1:27.137 0:08.863 2:02.871 3 51.273
14 39 Guarneri, Davide ITA FMI KTM 25:54.345 11 1:41.452 0:14.315 2:05.694 5 50.122
15 777 Bobryshev, Evgeny RUS MFR Honda 26:08.404 11 1:55.511 0:14.059 2:02.669 3 51.358
16 32 Potisek, Milko FRA FFM Honda 26:09.914 11 1:57.021 0:01.510 2:06.172 3 49.932
17 37 Krestinov, Gert EST EMF Honda 26:16.990 11 2:04.097 0:07.076 2:08.611 3 48.985
18 95 Justs, Augusts LAT LAMSF Honda 26:40.978 11 2:28.085 0:23.988 2:07.459 1 49.428
19 44 Lindstrom, Kim SWE SVEMO Kawasaki 24:16.139 10 1 lap 1 lap 2:09.155 4 48.779
20 30 Aranda, Gregory FRA FFM Yamaha 24:17.783 10 1 lap 0:01.644 2:08.922 3 48.867
21 313 Livs, Davis LAT LAMSF Kawasaki 24:21.527 10 1 lap 0:03.744 2:11.582 1 47.879
22 43 Mackenzie, Bryan GBR ACU KTM 24:23.286 10 1 lap 0:01.759 2:09.939 2 48.484
23 262 Lonka, Lukasz POL PZM Honda 24:53.762 10 1 lap 0:30.476 2:08.279 3 49.112
24 611 Cociu, Mihail MDA FMI KTM 14:22.358 5 6 laps 5 laps 2:14.615 1 46.8
25 999 Goncalves, Rui POR FMP Honda 10:22.244 4 7 laps 1 lap 2:01.477 2 51.862
26 555 Graeme, Irwin GBR ACU Yamaha 4:37.757 1 10 laps 3 laps 2:11.989 1 47.731
27 112 Law, Jamie GBR ACU KTM 0:00.000 0 11 laps 1 lap 0:00.000

MX2 – Qualifying Race – Classification
Pos Nr Rider Nat. Fed. Bike Time laps Diff. First Diff. Prev. Bestlaptime in lap Speed

1 84 Herlings, Jeffrey NED KNMV KTM 24:35.466 11 0:00.000 0:00.000 1:59.032 7 52.927
2 25 Coldenhoff, Glenn NED KNMV KTM 24:40.123 11 0:04.657 0:04.657 1:58.950 1 52.963
3 338 Osborne, Zachary USA ACU Yamaha 24:52.496 11 0:17.030 0:12.373 2:00.806 4 52.15
4 7 Tonus, Arnaud SUI FMS Yamaha 24:59.711 11 0:24.245 0:07.215 2:00.011 1 52.495
5 45 Nicholls, Jake GBR ACU KTM 25:02.816 11 0:27.350 0:03.105 2:02.641 2 51.369
6 89 van Horebeek, Jeremy BEL FMB KTM 25:03.928 11 0:28.462 0:01.112 2:02.112 6 51.592
7 22 Ferrandis, Dylan FRA FFM Kawasaki 25:05.099 11 0:29.633 0:01.171 2:02.954 2 51.239
8 100 Searle, Tommy GBR ACU Kawasaki 25:10.223 11 0:34.757 0:05.124 2:02.002 1 51.638
9 6 Anstie, Max GBR AMA Honda 25:15.843 11 0:40.377 0:05.620 2:02.002 1 51.638
10 911 Tixier, Jordi FRA FFM KTM 25:17.018 11 0:41.552 0:01.175 2:02.815 3 51.297
11 37 Teillet, Valentin FRA FFM Kawasaki 25:20.482 11 0:45.016 0:03.464 2:02.587 1 51.392
12 173 Guillod, Valentin SUI FMS KTM 25:31.114 11 0:55.648 0:10.632 2:01.493 1 51.855
13 66 Tonkov, Alexander RUS MFR Honda 25:33.771 11 0:58.305 0:02.657 2:02.984 1 51.226
14 63 Klein Kromhof, Ceriel NED KNMV Honda 25:38.196 11 1:02.730 0:04.425 2:02.456 1 51.447
15 77 Lupino, Alessandro ITA FMI Husqvarna 25:46.702 11 1:11.236 0:08.506 2:04.257 1 50.701
16 128 Monticelli, Ivo ITA FMI Husqvarna 25:49.646 11 1:14.180 0:02.944 2:04.483 2 50.609
17 824 Kouwenberg, Nick NED KNMV TM 25:55.985 11 1:20.519 0:06.339 2:06.274 4 49.892
18 249 Larsen, Nikolaj DEN DMU Suzuki 26:04.460 11 1:28.994 0:08.475 2:04.879 1 50.449
19 600 Ivanovs, Davis LAT LAMSF Kawasaki 26:09.116 11 1:33.650 0:04.656 2:05.810 2 50.076
20 43 Dewulf, Jeffrey BEL FMB Yamaha 26:10.559 11 1:35.093 0:01.443 2:07.831 4 49.284
21 18 De Waal, Micha – Boy NED KNMV Suzuki 26:12.522 11 1:37.056 0:01.963 2:08.073 2 49.191
22 461 Febvre, Romain FRA FFM KTM 26:13.397 11 1:37.931 0:00.875 2:06.967 3 49.619
23 112 Heibye, Even NOR NMF KTM 26:16.668 11 1:41.202 0:03.271 2:08.050 1 49.2
24 103 Vandueren, Kenny BEL FMB Yamaha 26:18.936 11 1:43.470 0:02.268 2:06.168 2 49.933
25 195 Justs, Roberts LAT LAMSF Honda 26:23.607 11 1:48.141 0:04.671 2:08.472 1 49.038
26 12 Zecchina, Simone ITA FMI Yamaha 26:47.954 11 2:12.488 0:24.347 2:07.087 2 49.572
27 171 Satink, Rick NED KNMV Honda 27:14.367 11 2:38.901 0:26.413 2:07.530 2 49.4
28 15 Harwood, Hamish GBR ACU Honda 24:54.498 10 1 lap 1 lap 2:11.249 3 48
29 33 Lieber, Julien BEL FMB Suzuki 25:12.852 10 1 lap 0:18.354 2:05.175 1 50.33
30 300 Golovkin, Viacheslav RUS LAMSF Kawasaki 25:26.514 10 1 lap 0:13.662 2:12.098 4 47.692
31 511 Scheele, Kieran NZL ACU Honda 26:10.865 10 1 lap 0:44.351 2:12.686 3 47.481
32 44 Banks-Browne, Elliott GBR ACU KTM 21:20.071 9 2 laps 1 lap 2:03.645 2 50.952
33 141 Cervellin, Andrea ITA FMI TM 20:04.823 8 3 laps 1 lap 2:04.868 2 50.453
34 262 Del Segato, Giacomo ITA FMI KTM 18:54.343 7 4 laps 1 lap 2:16.493 1 46.156
35 590 Triest, Nick BEL FMB Husqvarna 15:24.617 6 5 laps 1 lap 2:08.065 3 49.194
36 17 Butron, Jose ESP RFME KTM 2:15.912 0 11 laps 6 laps 0:00.000

EMX 250 – Race 1 – Classification
Pos Nr Rider Nat. Fed. Bike Time laps Diff. First Diff. Prev. Bestlaptime in lap Speed

1 119 Pocock, Mel GBR ACU Yamaha 30:31.329 13 0:00.000 0:00.000 2:05.964 2 50.014
2 55 Kras, Mike NED KNMV Suzuki 30:44.867 13 0:13.538 0:13.538 2:09.103 5 48.798
3 136 Olsen, Stefan Kjer DEN DMU Yamaha 30:45.672 13 0:14.343 0:00.805 2:08.816 1 48.907
4 172 Van Doninck, Brent BEL FMB KTM 31:14.000 13 0:42.671 0:28.328 2:09.158 2 48.777
5 107 Van Berkel, Lars NED KNMV Honda 31:49.422 13 1:18.093 0:35.422 2:11.234 1 48.006
6 194 Versluis, Dave NED KNMV Kawasaki 32:00.016 13 1:28.687 0:10.594 2:15.023 2 46.659
7 7 Bastemeijer, Donny NED KNMV Honda 32:06.042 13 1:34.713 0:06.026 2:14.479 2 46.847
8 247 Jönsson, Jesper SWE SVEMO Suzuki 32:13.076 13 1:41.747 0:07.034 2:15.612 7 46.456
9 61 Olsen, Thomas Kjer DEN DMU Yamaha 32:18.077 13 1:46.748 0:05.001 2:14.478 5 46.848
10 23 Bernardini, Samuele ITA FMI KTM 32:27.507 13 1:56.178 0:09.430 2:14.290 5 46.913
11 329 Nijenhuis, Luca NED KNMV Yamaha 32:30.018 13 1:58.689 0:02.511 2:12.401 3 47.583
12 188 Van Der Vlist, Freek NED KNMV KTM 32:33.127 13 2:01.798 0:03.109 2:14.465 1 46.852
13 12 Brylyakov, Vsevolod RUS MFR KTM 32:37.981 13 2:06.652 0:04.854 2:15.948 5 46.341
14 71 Graulus, Damon BEL FMB Suzuki 32:38.312 13 2:06.983 0:00.331 2:12.974 1 47.378
15 173 Irt, Peter SLO AMZS Suzuki 32:40.922 13 2:09.593 0:02.610 2:16.176 2 46.264
16 347 Jönsson, Pontus SWE SVEMO Suzuki 32:47.457 13 2:16.128 0:06.535 2:14.680 1 46.778
17 100 Klingsheim, Magne NOR NMF KTM 32:55.753 13 2:24.424 0:08.296 2:14.119 2 46.973
18 707 Kappel, Robin FRA FFM KTM 30:42.465 12 1 lap 1 lap 2:18.283 6 45.559
19 151 Desprey, Maxime FRA FFM Kawasaki 30:43.280 12 1 lap 0:00.815 2:11.190 2 48.022
20 421 Paez, Jordi NED KNMV Honda 30:48.149 12 1 lap 0:04.869 2:17.281 5 45.891
21 264 Bengtsson, Filip SWE SVEMO KTM 30:49.477 12 1 lap 0:01.328 2:18.180 9 45.593
22 38 Van De Sande, Axel BEL FMB KTM 30:50.901 12 1 lap 0:01.424 2:18.351 1 45.536
23 411 Kahro, Erki EST EMF Yamaha 30:54.993 12 1 lap 0:04.092 2:17.647 3 45.769
24 21 Plessers, Mathias BEL FMB Honda 31:00.911 12 1 lap 0:05.918 2:18.864 3 45.368
25 39 Hjortmarker, Eddie SWE SVEMO Suzuki 31:05.727 12 1 lap 0:04.816 2:17.214 1 45.914
26 94 Bakens, Robin BEL FMB TM 31:08.936 12 1 lap 0:03.209 2:18.698 4 45.422
27 811 Sterry, Adam GBR ACU Honda 31:12.305 12 1 lap 0:03.369 2:17.576 7 45.793
28 69 Soper, Marcus-Lee GBR ACU Honda 31:15.312 12 1 lap 0:03.007 2:17.309 2 45.882
29 567 Brackman, Wietse BEL FMB Suzuki 31:18.935 12 1 lap 0:03.623 2:21.762 3 44.441
30 242 Nilsen, Kim-Ronny NOR NMF Suzuki 31:32.248 12 1 lap 0:13.313 2:20.104 3 44.967
31 572 Jarva, Kim Oiva NOR NMF Honda 31:36.198 12 1 lap 0:03.950 2:20.173 3 44.944
32 161 Brevers, Ludovic BEL FMB Yamaha 31:46.240 12 1 lap 0:10.042 2:17.686 2 45.756
33 837 Battig, Alessandro ITA FMI Yamaha 31:54.056 12 1 lap 0:07.816 2:17.209 5 45.915
34 89 Bogers, Brian NED KNMV KTM 31:55.178 12 1 lap 0:01.122 2:12.224 1 47.646
35 92 Valentin Lasheras, Ander ESP RFME Yamaha 17:37.716 6 7 laps 6 laps 2:21.022 4 44.674
36 181 Albers, Rene NED KNMV KTM 13:54.047 5 8 laps 1 lap 2:16.882 2 46.025
37 241 Park, Andre EST EMF Honda 11:49.755 4 9 laps 1 lap 2:18.267 1 45.564
38 260 Nyegaard, Remi NOR NMF Kawasaki 9:22.088 3 10 laps 1 lap 2:15.616 3 46.455
39 64 Damiaens, Dietger BEL FMB KTM 9:28.433 3 10 laps 0:06.345 2:19.398 2 45.194
40 59 Van Rooij, Ronnie NED KNMV Kawasaki 4:41.684 1 12 laps 2 laps 2:15.568 1 46.471

A voir aussi :

Le commentaires sont fermés.